createdAt,value
2019-04-01T00:01:27.817Z,0.40
2019-04-01T00:04:01.582Z,0.37
2019-04-01T00:06:35.818Z,0.50
2019-04-01T00:09:09.123Z,0.40
2019-04-01T00:11:40.781Z,0.40
2019-04-01T00:14:11.235Z,0.40
2019-04-01T00:16:45.544Z,0.40
2019-04-01T00:19:18.451Z,0.40
2019-04-01T00:21:50.562Z,0.40
2019-04-01T00:24:25.350Z,0.40
2019-04-01T00:27:01.330Z,0.47
2019-04-01T00:29:34.692Z,0.40
2019-04-01T00:32:07.755Z,0.40
2019-04-01T00:34:38.238Z,0.40
2019-04-01T00:37:13.088Z,0.40
2019-04-01T00:39:46.503Z,0.40
2019-04-01T00:42:27.170Z,0.40
2019-04-01T00:45:01.031Z,0.40
2019-04-01T00:47:37.398Z,0.40
2019-04-01T00:50:12.366Z,0.40
2019-04-01T00:52:47.045Z,0.43
2019-04-01T00:55:22.504Z,0.40
2019-04-01T00:57:55.933Z,0.40
2019-04-01T01:00:29.858Z,0.40
2019-04-01T01:03:02.191Z,0.40
2019-04-01T01:05:34.354Z,0.40
2019-04-01T01:08:07.800Z,0.40
2019-04-01T01:10:41.158Z,0.40
2019-04-01T01:13:13.352Z,0.40
2019-04-01T01:15:47.377Z,0.40
2019-04-01T01:18:21.514Z,0.40
2019-04-01T01:20:55.280Z,0.40
2019-04-01T01:23:26.639Z,0.40
2019-04-01T01:25:59.843Z,0.40
2019-04-01T01:28:32.039Z,0.50
2019-04-01T01:31:03.258Z,0.40
2019-04-01T01:33:36.484Z,0.50
2019-04-01T01:36:12.734Z,0.40
2019-04-01T01:38:47.432Z,0.40
2019-04-01T01:41:21.250Z,0.40
2019-04-01T01:43:57.855Z,0.40
2019-04-01T01:46:32.352Z,0.50
2019-04-01T01:49:08.584Z,0.40
2019-04-01T01:51:43.648Z,0.40
2019-04-01T01:54:16.777Z,0.47
2019-04-01T01:56:49.950Z,0.50
2019-04-01T01:59:19.678Z,0.40
2019-04-01T02:01:49.783Z,0.50
2019-04-01T02:04:23.910Z,0.40
2019-04-01T02:06:57.546Z,0.40
2019-04-01T02:09:32.416Z,0.40
2019-04-01T02:12:05.250Z,0.40
2019-04-01T02:14:38.626Z,0.40
2019-04-01T02:17:11.399Z,0.40
2019-04-01T02:19:46.220Z,0.40
2019-04-01T02:22:20.995Z,0.40
2019-04-01T02:24:54.782Z,0.43
2019-04-01T02:27:27.645Z,0.40
2019-04-01T02:30:04.213Z,0.50
2019-04-01T02:32:35.688Z,0.40
2019-04-01T02:35:07.519Z,0.40
2019-04-01T02:37:38.504Z,0.40
2019-04-01T02:40:09.318Z,0.40
2019-04-01T02:42:40.230Z,0.40
2019-04-01T02:45:15.332Z,0.50
2019-04-01T02:47:46.536Z,0.40
2019-04-01T02:50:21.231Z,0.40
2019-04-01T02:52:54.251Z,0.40
2019-04-01T02:55:29.771Z,0.40
2019-04-01T02:58:04.109Z,0.40
2019-04-01T03:00:37.714Z,0.40
2019-04-01T03:03:10.959Z,0.40
2019-04-01T03:05:44.195Z,0.40
2019-04-01T03:08:19.065Z,0.40
2019-04-01T03:10:54.862Z,0.40
2019-04-01T03:13:31.715Z,0.50
2019-04-01T03:16:05.025Z,0.40
2019-04-01T03:18:39.207Z,0.47
2019-04-01T03:21:14.425Z,0.40
2019-04-01T03:23:49.315Z,0.40
2019-04-01T03:26:24.104Z,0.40
2019-04-01T03:28:58.879Z,0.40
2019-04-01T03:31:29.748Z,0.40
2019-04-01T03:34:02.791Z,0.40
2019-04-01T03:36:36.916Z,0.40
2019-04-01T03:39:11.844Z,0.40
2019-04-01T03:41:46.308Z,0.40
2019-04-01T03:44:19.046Z,0.40
2019-04-01T03:46:52.916Z,0.50
2019-04-01T03:49:25.678Z,0.40
2019-04-01T03:51:59.928Z,0.40
2019-04-01T03:54:33.888Z,0.40
2019-04-01T03:57:07.585Z,0.50
2019-04-01T03:59:42.632Z,0.40
2019-04-01T04:02:15.775Z,0.50
2019-04-01T04:04:49.474Z,0.50
2019-04-01T04:07:22.411Z,0.40
2019-04-01T04:09:56.327Z,0.50
2019-04-01T04:12:31.457Z,0.40
2019-04-01T04:15:05.270Z,0.40
2019-04-01T04:17:40.331Z,0.40
2019-04-01T04:20:15.209Z,0.50
2019-04-01T04:22:49.532Z,0.47
2019-04-01T04:25:23.529Z,0.40
2019-04-01T04:27:54.674Z,0.40
2019-04-01T04:30:29.103Z,0.40
2019-04-01T04:33:01.258Z,0.40
2019-04-01T04:35:34.801Z,0.40
2019-04-01T04:38:05.595Z,0.50
2019-04-01T04:40:40.698Z,0.40
2019-04-01T04:43:09.662Z,0.50
2019-04-01T04:45:44.392Z,0.40
2019-04-01T04:48:18.240Z,0.40
2019-04-01T04:50:52.411Z,0.40
2019-04-01T04:53:26.055Z,0.40
2019-04-01T04:55:58.759Z,0.40
2019-04-01T04:58:33.379Z,0.40
2019-04-01T05:01:07.017Z,0.50
2019-04-01T05:03:41.349Z,0.40
2019-04-01T05:06:12.096Z,0.40
2019-04-01T05:08:46.550Z,0.40
2019-04-01T05:11:16.610Z,0.40
2019-04-01T05:13:46.600Z,0.50
2019-04-01T05:16:19.992Z,0.40
2019-04-01T05:18:53.778Z,0.40
2019-04-01T05:21:29.410Z,0.40
2019-04-01T05:24:08.285Z,0.40
2019-04-01T05:26:44.495Z,0.40
2019-04-01T05:29:19.490Z,0.40
2019-04-01T05:31:58.783Z,0.40
2019-04-01T05:34:37.728Z,0.50
2019-04-01T05:37:10.688Z,0.40
2019-04-01T05:39:44.262Z,0.40
2019-04-01T05:42:18.888Z,0.50
2019-04-01T05:44:52.676Z,0.40
2019-04-01T05:47:29.140Z,0.33
2019-04-01T05:50:02.985Z,0.40
2019-04-01T05:52:36.031Z,0.40
2019-04-01T05:55:10.808Z,0.40
2019-04-01T05:57:45.188Z,0.40
2019-04-01T06:00:46.630Z,0.40
2019-04-01T06:03:20.067Z,0.40
2019-04-01T06:05:53.155Z,0.50
2019-04-01T06:08:25.959Z,0.40
2019-04-01T06:10:59.678Z,0.50
2019-04-01T06:13:33.246Z,0.40
2019-04-01T06:16:06.975Z,0.40
2019-04-01T06:18:41.343Z,0.50
2019-04-01T06:21:14.221Z,0.40
2019-04-01T06:23:45.484Z,0.40
2019-04-01T06:26:22.380Z,0.40
2019-04-01T06:28:54.885Z,0.40
2019-04-01T06:31:27.334Z,0.40
2019-04-01T06:34:01.952Z,0.50
2019-04-01T06:36:38.708Z,0.40
2019-04-01T06:39:11.776Z,0.40
2019-04-01T06:41:44.414Z,0.47
2019-04-01T06:44:16.747Z,0.40
2019-04-01T06:46:51.099Z,0.50
2019-04-01T06:49:25.891Z,0.40
2019-04-01T06:52:00.992Z,0.40
2019-04-01T06:54:37.826Z,0.40
2019-04-01T06:57:12.640Z,0.40
2019-04-01T06:59:45.831Z,0.40
2019-04-01T07:02:19.025Z,0.30
2019-04-01T07:04:52.392Z,0.30
2019-04-01T07:07:22.882Z,0.40
2019-04-01T07:09:52.218Z,0.30
2019-04-01T07:12:28.035Z,0.30
2019-04-01T07:15:03.845Z,0.30
2019-04-01T07:17:37.542Z,0.30
2019-04-01T07:20:12.170Z,0.30
2019-04-01T07:22:43.267Z,0.30
2019-04-01T07:25:13.051Z,0.40
2019-04-01T07:27:44.281Z,0.40
2019-04-01T07:30:14.050Z,0.30
2019-04-01T07:32:45.123Z,0.30
2019-04-01T07:35:17.259Z,0.33
2019-04-01T07:37:49.087Z,0.40
2019-04-01T07:40:20.055Z,0.30
2019-04-01T07:42:53.119Z,0.40
2019-04-01T07:45:26.345Z,0.30
2019-04-01T07:48:00.128Z,0.40
2019-04-01T07:50:30.399Z,0.30
2019-04-01T07:53:05.279Z,0.40
2019-04-01T07:55:37.828Z,0.40
2019-04-01T07:58:12.611Z,0.30
2019-04-01T08:00:46.472Z,0.40
2019-04-01T08:03:19.220Z,0.40
2019-04-01T08:05:50.951Z,0.40
2019-04-01T08:08:24.929Z,0.30
2019-04-01T08:10:57.000Z,0.40
2019-04-01T08:13:29.842Z,0.30
2019-04-01T08:16:01.792Z,0.30
2019-04-01T08:18:36.561Z,0.20
2019-04-01T08:21:09.107Z,0.30
2019-04-01T08:23:44.576Z,0.20
2019-04-01T08:26:19.202Z,0.30
2019-04-01T08:28:52.583Z,0.40
2019-04-01T08:31:25.376Z,0.30
2019-04-01T08:33:56.959Z,0.20
2019-04-01T08:36:30.115Z,0.30
2019-04-01T08:39:03.536Z,0.30
2019-04-01T08:41:37.323Z,0.30
2019-04-01T08:44:09.066Z,0.40
2019-04-01T08:46:40.512Z,0.30
2019-04-01T08:49:13.654Z,0.20
2019-04-01T08:51:43.717Z,0.37
2019-04-01T08:54:13.977Z,0.30
2019-04-01T08:56:44.247Z,0.20
2019-04-01T08:59:17.986Z,0.33
2019-04-01T09:01:50.789Z,0.20
2019-04-01T09:04:21.000Z,0.40
2019-04-01T09:06:51.518Z,0.30
2019-04-01T09:09:25.765Z,0.27
2019-04-01T09:12:00.287Z,0.30
2019-04-01T09:14:32.432Z,0.30
2019-04-01T09:17:03.127Z,0.37
2019-04-01T09:19:36.548Z,0.40
2019-04-01T09:22:11.903Z,0.30
2019-04-01T09:24:45.079Z,0.30
2019-04-01T09:27:15.111Z,0.30
2019-04-01T09:29:49.667Z,0.20
2019-04-01T09:32:23.103Z,0.20
2019-04-01T09:34:56.543Z,0.40
2019-04-01T09:37:31.310Z,0.30
2019-04-01T09:40:04.542Z,0.40
2019-04-01T09:42:38.883Z,0.33
2019-04-01T09:45:14.723Z,0.27
2019-04-01T09:47:50.944Z,0.20
2019-04-01T09:50:24.131Z,0.30
2019-04-01T09:52:56.521Z,0.20
2019-04-01T09:55:31.491Z,0.30
2019-04-01T09:58:05.676Z,0.30
2019-04-01T10:00:39.462Z,0.37
2019-04-01T10:03:11.028Z,0.30
2019-04-01T10:05:42.437Z,0.30
2019-04-01T10:08:15.691Z,0.20
2019-04-01T10:10:49.359Z,0.20
2019-04-01T10:13:22.821Z,0.23
2019-04-01T10:15:55.355Z,0.30
2019-04-01T10:18:25.972Z,0.30
2019-04-01T10:20:56.014Z,0.30
2019-04-01T10:23:29.471Z,0.20
2019-04-01T10:26:03.378Z,0.20
2019-04-01T10:28:40.388Z,0.20
2019-04-01T10:31:13.120Z,0.20
2019-04-01T10:33:45.484Z,0.23
2019-04-01T10:36:18.762Z,0.20
2019-04-01T10:38:52.927Z,0.20
2019-04-01T10:41:24.864Z,0.20
2019-04-01T10:43:58.563Z,0.30
2019-04-01T10:46:34.281Z,0.30
2019-04-01T10:49:10.424Z,0.20
2019-04-01T10:51:44.033Z,0.23
2019-04-01T10:54:16.908Z,0.20
2019-04-01T10:56:47.681Z,0.20
2019-04-01T10:59:21.640Z,0.20
2019-04-01T11:01:53.981Z,0.20
2019-04-01T11:04:25.676Z,0.30
2019-04-01T11:06:57.990Z,0.20
2019-04-01T11:09:38.143Z,0.20
2019-04-01T11:12:04.847Z,0.20
2019-04-01T11:14:40.427Z,0.20
2019-04-01T11:17:15.256Z,0.20
2019-04-01T11:19:50.137Z,0.20
2019-04-01T11:22:22.279Z,0.40
2019-04-01T11:24:57.408Z,0.27
2019-04-01T11:27:32.167Z,0.20
2019-04-01T11:30:07.766Z,0.30
2019-04-01T11:32:42.881Z,0.27
2019-04-01T11:35:19.951Z,0.20
2019-04-01T11:37:55.120Z,0.30
2019-04-01T11:40:30.861Z,0.20
2019-04-01T11:43:05.103Z,0.30
2019-04-01T11:45:42.402Z,0.20
2019-04-01T11:48:17.297Z,0.20
2019-04-01T11:50:51.374Z,0.20
2019-04-01T11:53:25.535Z,0.30
2019-04-01T11:56:03.623Z,0.20
2019-04-01T11:58:38.507Z,0.20
2019-04-01T12:01:14.041Z,0.20
2019-04-01T12:03:48.647Z,0.20
2019-04-01T12:06:23.734Z,0.30
2019-04-01T12:08:54.406Z,0.20
2019-04-01T12:11:27.496Z,0.30
2019-04-01T12:14:04.869Z,0.20
2019-04-01T12:16:39.667Z,0.20
2019-04-01T12:19:09.730Z,0.20
2019-04-01T12:21:43.844Z,0.20
2019-04-01T12:24:17.778Z,0.20
2019-04-01T12:26:51.234Z,0.20
2019-04-01T12:29:24.393Z,0.20
2019-04-01T12:31:59.631Z,0.30
2019-04-01T12:34:32.126Z,0.20
2019-04-01T12:37:02.705Z,0.20
2019-04-01T12:39:32.994Z,0.20
2019-04-01T12:42:09.119Z,0.20
2019-04-01T12:44:39.663Z,0.20
2019-04-01T12:47:10.345Z,0.20
2019-04-01T12:49:40.676Z,0.20
2019-04-01T12:52:10.382Z,0.20
2019-04-01T12:54:44.704Z,0.20
2019-04-01T12:57:19.004Z,0.20
2019-04-01T12:59:55.071Z,0.20
2019-04-01T13:02:31.588Z,0.20
2019-04-01T13:05:07.953Z,0.20
2019-04-01T13:07:40.455Z,0.30
2019-04-01T13:10:13.182Z,0.20
2019-04-01T13:12:46.913Z,0.30
2019-04-01T13:15:21.067Z,0.20
2019-04-01T13:17:57.101Z,0.20
2019-04-01T13:20:37.685Z,0.30
2019-04-01T13:23:07.111Z,0.23
2019-04-01T13:25:42.195Z,0.20
2019-04-01T13:28:14.978Z,0.20
2019-04-01T13:30:51.085Z,0.30
2019-04-01T13:33:26.388Z,0.23
2019-04-01T13:35:57.536Z,0.20
2019-04-01T13:38:29.423Z,0.30
2019-04-01T13:41:04.421Z,0.23
2019-04-01T13:43:39.043Z,0.20
2019-04-01T13:46:12.235Z,0.10
2019-04-01T13:48:57.043Z,0.20
2019-04-01T13:51:21.314Z,0.20
2019-04-01T13:54:07.951Z,0.20
2019-04-01T13:56:29.988Z,0.20
2019-04-01T13:59:04.141Z,0.20
2019-04-01T14:01:39.081Z,0.20
2019-04-01T14:04:14.068Z,0.20
2019-04-01T14:06:48.811Z,0.20
2019-04-01T14:09:21.208Z,0.20
2019-04-01T14:11:56.160Z,0.20
2019-04-01T14:14:30.831Z,0.20
2019-04-01T14:17:03.128Z,0.20
2019-04-01T14:19:34.810Z,0.20
2019-04-01T14:22:08.036Z,0.20
2019-04-01T14:24:45.249Z,0.20
2019-04-01T14:27:19.248Z,0.20
2019-04-01T14:29:53.087Z,0.20
2019-04-01T14:32:25.862Z,0.20
2019-04-01T14:34:59.104Z,0.20
2019-04-01T14:37:31.350Z,0.20
2019-04-01T14:40:03.988Z,0.20
2019-04-01T14:42:37.105Z,0.20
2019-04-01T14:45:09.388Z,0.20
2019-04-01T14:47:57.047Z,0.20
2019-04-01T14:50:17.901Z,0.20
2019-04-01T14:52:48.547Z,0.20
2019-04-01T14:55:19.902Z,0.20
2019-04-01T14:57:52.226Z,0.30
2019-04-01T15:00:25.099Z,0.23
2019-04-01T15:02:59.808Z,0.20
2019-04-01T15:05:33.934Z,0.23
2019-04-01T15:08:09.696Z,0.20
2019-04-01T15:10:41.497Z,0.20
2019-04-01T15:13:16.191Z,0.20
2019-04-01T15:15:51.138Z,0.20
2019-04-01T15:18:24.362Z,0.20
2019-04-01T15:20:59.111Z,0.20
2019-04-01T15:23:32.035Z,0.30
2019-04-01T15:26:04.933Z,0.20
2019-04-01T15:28:39.172Z,0.20
2019-04-01T15:31:13.415Z,0.20
2019-04-01T15:33:46.219Z,0.20
2019-04-01T15:36:18.428Z,0.20
2019-04-01T15:38:51.089Z,0.20
2019-04-01T15:41:26.684Z,0.20
2019-04-01T15:44:00.334Z,0.20
2019-04-01T15:46:34.231Z,0.20
2019-04-01T15:49:06.698Z,0.23
2019-04-01T15:51:39.117Z,0.20
2019-04-01T15:54:09.381Z,0.20
2019-04-01T15:56:43.173Z,0.10
2019-04-01T15:59:17.248Z,0.20
2019-04-01T16:01:47.214Z,0.30
2019-04-01T16:04:17.843Z,0.20
2019-04-01T16:06:49.400Z,0.20
2019-04-01T16:09:23.274Z,0.20
2019-04-01T16:11:55.813Z,0.20
2019-04-01T16:14:29.539Z,0.20
2019-04-01T16:17:05.274Z,0.20
2019-04-01T16:19:38.706Z,0.20
2019-04-01T16:22:09.310Z,0.20
2019-04-01T16:24:39.073Z,0.20
2019-04-01T16:27:10.316Z,0.20
2019-04-01T16:29:40.931Z,0.30
2019-04-01T16:32:15.047Z,0.20
2019-04-01T16:34:47.720Z,0.20
2019-04-01T16:37:23.311Z,0.20
2019-04-01T16:39:56.711Z,0.20
2019-04-01T16:42:29.535Z,0.20
2019-04-01T16:45:04.262Z,0.20
2019-04-01T16:47:34.028Z,0.20
2019-04-01T16:50:13.825Z,0.20
2019-04-01T16:52:49.538Z,0.20
2019-04-01T16:55:22.470Z,0.20
2019-04-01T16:57:56.192Z,0.20
2019-04-01T17:00:29.485Z,0.20
2019-04-01T17:03:03.135Z,0.20
2019-04-01T17:05:40.163Z,0.20
2019-04-01T17:08:10.331Z,0.20
2019-04-01T17:10:43.933Z,0.20
2019-04-01T17:13:18.023Z,0.20
2019-04-01T17:16:11.191Z,0.27
2019-04-01T17:18:45.747Z,0.20
2019-04-01T17:21:21.187Z,0.20
2019-04-01T17:23:52.949Z,0.20
2019-04-01T17:26:25.851Z,0.20
2019-04-01T17:29:21.127Z,0.20
2019-04-01T17:31:50.892Z,0.20
2019-04-01T17:34:24.722Z,0.20
2019-04-01T17:37:00.837Z,0.20
2019-04-01T17:39:34.112Z,0.30
2019-04-01T17:42:09.504Z,0.23
2019-04-01T17:44:44.398Z,0.20
2019-04-01T17:47:15.927Z,0.20
2019-04-01T17:49:56.987Z,0.30
2019-04-01T17:52:28.876Z,0.30
2019-04-01T17:54:58.816Z,0.30
2019-04-01T17:57:31.713Z,0.30
2019-04-01T18:00:03.844Z,0.27
2019-04-01T18:02:39.483Z,0.30
2019-04-01T18:05:18.379Z,0.20
2019-04-01T18:07:53.630Z,0.20
2019-04-01T18:10:28.299Z,0.37
2019-04-01T18:13:02.800Z,0.20
2019-04-01T18:15:37.634Z,0.37
2019-04-01T18:18:10.257Z,0.30
2019-04-01T18:20:44.556Z,0.20
2019-04-01T18:23:22.108Z,0.30
2019-04-01T18:25:52.856Z,0.30
2019-04-01T18:28:23.301Z,0.30
2019-04-01T18:30:57.035Z,0.30
2019-04-01T18:33:32.416Z,0.30
2019-04-01T18:36:05.644Z,0.30
2019-04-01T18:38:40.927Z,0.30
2019-04-01T18:41:13.315Z,0.40
2019-04-01T18:43:45.955Z,0.30
2019-04-01T18:46:21.052Z,0.30
2019-04-01T18:48:51.851Z,0.30
2019-04-01T18:51:24.178Z,0.30
2019-04-01T18:53:53.961Z,0.37
2019-04-01T18:56:28.233Z,0.30
2019-04-01T18:59:02.726Z,0.30
2019-04-01T19:01:35.776Z,0.33
2019-04-01T19:04:11.162Z,0.40
2019-04-01T19:06:45.167Z,0.30
2019-04-01T19:09:20.186Z,0.40
2019-04-01T19:12:03.388Z,0.30
2019-04-01T19:14:25.142Z,0.30
2019-04-01T19:16:56.700Z,0.40
2019-04-01T19:19:28.238Z,0.40
2019-04-01T19:22:01.486Z,0.30
2019-04-01T19:24:34.463Z,0.40
2019-04-01T19:27:07.495Z,0.40
2019-04-01T19:29:42.907Z,0.40
2019-04-01T19:32:16.161Z,0.33
2019-04-01T19:34:49.952Z,0.30
2019-04-01T19:37:23.622Z,0.30
2019-04-01T19:39:56.615Z,0.40
2019-04-01T19:42:30.787Z,0.40
2019-04-01T19:45:01.124Z,0.30
2019-04-01T19:47:31.784Z,0.30
2019-04-01T19:50:02.185Z,0.40
2019-04-01T19:52:36.067Z,0.30
2019-04-01T19:55:12.408Z,0.40
2019-04-01T19:57:42.839Z,0.40
2019-04-01T20:00:26.674Z,0.30
2019-04-01T20:02:48.062Z,0.30
2019-04-01T20:05:21.620Z,0.40
2019-04-01T20:07:55.617Z,0.40
2019-04-01T20:10:28.630Z,0.30
2019-04-01T20:13:01.381Z,0.40
2019-04-01T20:15:36.413Z,0.33
2019-04-01T20:18:08.418Z,0.30
2019-04-01T20:20:41.755Z,0.30
2019-04-01T20:23:15.331Z,0.40
2019-04-01T20:25:49.769Z,0.40
2019-04-01T20:28:23.627Z,0.43
2019-04-01T20:30:56.687Z,0.30
2019-04-01T20:33:31.818Z,0.30
2019-04-01T20:36:02.024Z,0.40
2019-04-01T20:38:36.298Z,0.40
2019-04-01T20:41:09.986Z,0.30
2019-04-01T20:43:43.272Z,0.40
2019-04-01T20:46:18.215Z,0.40
2019-04-01T20:48:55.802Z,0.30
2019-04-01T20:51:26.124Z,0.40
2019-04-01T20:54:00.705Z,0.30
2019-04-01T20:56:31.403Z,0.30
2019-04-01T20:59:04.410Z,0.40
2019-04-01T21:01:38.729Z,0.40
2019-04-01T21:04:13.058Z,0.30
2019-04-01T21:06:48.159Z,0.40
2019-04-01T21:09:22.535Z,0.40
2019-04-01T21:11:56.679Z,0.30
2019-04-01T21:14:29.615Z,0.40
2019-04-01T21:17:04.418Z,0.40
2019-04-01T21:19:37.739Z,0.30
2019-04-01T21:22:10.015Z,0.47
2019-04-01T21:24:43.780Z,0.30
2019-04-01T21:27:13.479Z,0.33
2019-04-01T21:29:47.851Z,0.40
2019-04-01T21:32:20.639Z,0.30
2019-04-01T21:35:04.534Z,0.40
2019-04-01T21:37:35.167Z,0.30
2019-04-01T21:40:11.603Z,0.37
2019-04-01T21:42:44.745Z,0.30
2019-04-01T21:45:17.420Z,0.40
2019-04-01T21:47:49.771Z,0.30
2019-04-01T21:50:22.943Z,0.30
2019-04-01T21:52:56.231Z,0.40
2019-04-01T21:55:28.484Z,0.40
2019-04-01T21:58:01.601Z,0.40
2019-04-01T22:00:48.626Z,0.40
2019-04-01T22:03:21.890Z,0.30
2019-04-01T22:05:54.055Z,0.40
2019-04-01T22:08:28.099Z,0.50
2019-04-01T22:11:02.253Z,0.40
2019-04-01T22:13:34.608Z,0.40
2019-04-01T22:16:10.951Z,0.40
2019-04-01T22:18:45.951Z,0.40
2019-04-01T22:21:19.225Z,0.30
2019-04-01T22:23:51.136Z,0.30
2019-04-01T22:26:28.436Z,0.40
2019-04-01T22:29:02.867Z,0.30
2019-04-01T22:31:35.986Z,0.40
2019-04-01T22:34:08.273Z,0.40
2019-04-01T22:36:42.243Z,0.40
2019-04-01T22:39:26.674Z,0.40
2019-04-01T22:41:55.262Z,0.40
2019-04-01T22:44:27.736Z,0.30
2019-04-01T22:46:59.938Z,0.30
2019-04-01T22:49:32.007Z,0.40
2019-04-01T22:52:10.564Z,0.40
2019-04-01T22:54:45.512Z,0.40
2019-04-01T22:57:15.866Z,0.40
2019-04-01T22:59:45.858Z,0.40
2019-04-01T23:02:16.699Z,0.30
2019-04-01T23:04:47.241Z,0.40
2019-04-01T23:07:18.338Z,0.40
2019-04-01T23:09:52.035Z,0.40
2019-04-01T23:12:27.753Z,0.40
2019-04-01T23:15:00.226Z,0.30
2019-04-01T23:17:33.138Z,0.40
2019-04-01T23:20:06.368Z,0.40
2019-04-01T23:22:41.706Z,0.40
2019-04-01T23:25:14.751Z,0.40
2019-04-01T23:27:46.981Z,0.40
2019-04-01T23:30:20.860Z,0.40
2019-04-01T23:32:51.503Z,0.40
2019-04-01T23:35:21.242Z,0.40
2019-04-01T23:37:52.954Z,0.40
2019-04-01T23:40:28.320Z,0.40
2019-04-01T23:43:01.479Z,0.40
2019-04-01T23:45:33.599Z,0.40
2019-04-01T23:48:05.290Z,0.40
2019-04-01T23:50:39.038Z,0.40
2019-04-01T23:53:11.907Z,0.40
2019-04-01T23:55:47.914Z,0.40
2019-04-01T23:58:22.229Z,0.50
